Time;durP1;ratioP1;P1;durP2;ratioP2;P2;SDS_P1;SDS_P2;PMS_P1;PMS_P2;Temp;Humidity;BMP_temperature;BMP_pressure;BME280_temperature;BME280_humidity;BME280_pressure;Samples;Min_cycle;Max_cycle;Signal;HPM_P1;HPM_P2
2022/03/25 00:01:18;;;;;;;30.38;13.60;;;;;;;-3.40;76.11;99610.25;4918697;29;20073;-79
2022/03/25 00:03:44;;;;;;;25.80;13.52;;;;;;;-3.38;76.24;99606.72;4902796;29;20086;-78
2022/03/25 00:06:11;;;;;;;28.15;11.80;;;;;;;-3.38;76.15;99629.38;4935887;29;20139;-78
2022/03/25 00:08:37;;;;;;;26.65;13.63;;;;;;;-3.37;76.47;99605.81;4918557;29;20066;-79
2022/03/25 00:11:03;;;;;;;28.08;11.77;;;;;;;-3.42;76.37;99610.28;4918158;29;20043;-79
2022/03/25 00:13:29;;;;;;;28.00;13.52;;;;;;;-3.45;76.26;99605.97;4935969;29;20500;-77
2022/03/25 00:15:56;;;;;;;26.13;13.45;;;;;;;-3.46;76.43;99604.25;4918531;29;20090;-79
2022/03/25 00:18:22;;;;;;;22.88;9.73;;;;;;;-3.44;76.29;99593.75;4950542;29;20059;-79
2022/03/25 00:20:49;;;;;;;28.35;12.32;;;;;;;-3.48;76.54;99599.94;4950546;29;20586;-82
2022/03/25 00:23:15;;;;;;;23.50;11.70;;;;;;;-3.56;76.98;99600.09;4902929;29;20047;-78
2022/03/25 00:25:41;;;;;;;32.30;13.95;;;;;;;-3.57;76.75;99600.09;4934158;29;20044;-78
2022/03/25 00:28:07;;;;;;;24.05;11.95;;;;;;;-3.63;76.93;99587.16;4950130;29;20054;-77
2022/03/25 00:30:34;;;;;;;24.92;10.98;;;;;;;-3.52;77.08;99595.66;4918229;29;20388;-78
2022/03/25 00:33:00;;;;;;;21.10;11.88;;;;;;;-3.56;76.58;99587.00;4935249;29;20047;-79
2022/03/25 00:35:26;;;;;;;27.05;11.73;;;;;;;-3.55;77.01;99590.47;4935034;29;20043;-79
2022/03/25 00:37:52;;;;;;;28.10;12.75;;;;;;;-3.54;76.81;99602.66;4935212;29;20608;-78
2022/03/25 00:40:18;;;;;;;28.02;12.90;;;;;;;-3.50;76.91;99599.09;4949942;29;20043;-79
2022/03/25 00:42:47;;;;;;;28.45;11.75;;;;;;;-3.48;76.63;99587.72;4923170;29;20039;-78
2022/03/25 00:45:13;;;;;;;23.25;12.00;;;;;;;-3.46;76.14;99591.19;4911118;29;20039;-79
2022/03/25 00:47:39;;;;;;;24.85;12.35;;;;;;;-3.51;76.25;99598.22;4939141;29;20107;-78
2022/03/25 00:50:05;;;;;;;34.13;14.45;;;;;;;-3.55;76.44;99600.94;4952920;29;20052;-77
2022/03/25 00:52:32;;;;;;;32.53;15.23;;;;;;;-3.55;76.62;99603.56;4921440;29;20063;-80
2022/03/25 00:54:58;;;;;;;24.67;12.88;;;;;;;-3.56;76.67;99578.31;4937070;29;20051;-78
2022/03/25 00:57:24;;;;;;;29.00;13.80;;;;;;;-3.52;76.80;99588.69;4906148;29;20042;-78
2022/03/25 00:59:50;;;;;;;26.38;13.55;;;;;;;-3.44;76.36;99581.53;4938386;29;20043;-78
2022/03/25 01:02:16;;;;;;;29.80;12.82;;;;;;;-3.42;76.40;99579.78;4921471;29;20040;-78
2022/03/25 01:04:42;;;;;;;23.20;11.48;;;;;;;-3.45;76.42;99579.84;4921197;29;20511;-78
2022/03/25 01:07:08;;;;;;;27.33;11.90;;;;;;;-3.42;76.04;99581.53;4937435;29;20090;-78
2022/03/25 01:09:34;;;;;;;17.02;8.38;;;;;;;-3.39;76.01;99565.78;4953467;29;20504;-79
2022/03/25 01:12:00;;;;;;;22.38;12.55;;;;;;;-3.50;76.15;99559.88;4920932;29;20182;-78
2022/03/25 01:14:27;;;;;;;22.38;12.20;;;;;;;-3.49;76.17;99559.88;4921127;29;20103;-78
2022/03/25 01:16:53;;;;;;;27.75;13.23;;;;;;;-3.49;76.26;99553.78;4952837;29;20432;-78
2022/03/25 01:19:22;;;;;;;25.55;11.77;;;;;;;-3.57;76.07;99556.56;4921335;29;20051;-78
2022/03/25 01:21:48;;;;;;;23.15;12.07;;;;;;;-3.58;76.41;99551.34;4920889;29;20074;-77
2022/03/25 01:24:14;;;;;;;23.75;12.35;;;;;;;-3.63;76.64;99556.66;4952785;29;20554;-78
2022/03/25 01:26:42;;;;;;;21.10;12.07;;;;;;;-3.49;76.28;99564.25;4930928;29;20093;-79
2022/03/25 01:29:08;;;;;;;20.77;10.50;;;;;;;-3.53;75.93;99553.00;4957033;29;20392;-77
2022/03/25 01:31:35;;;;;;;24.50;10.68;;;;;;;-3.59;76.02;99565.31;4972133;28;20046;-77
2022/03/25 01:34:02;;;;;;;20.13;10.05;;;;;;;-3.60;76.07;99567.06;4923798;29;20047;-78
2022/03/25 01:36:28;;;;;;;17.45;10.10;;;;;;;-3.57;76.03;99560.91;4957026;29;20388;-77
2022/03/25 01:38:54;;;;;;;18.60;9.90;;;;;;;-3.51;75.89;99561.66;4956786;29;20075;-78
2022/03/25 01:41:20;;;;;;;13.82;6.97;;;;;;;-3.49;75.73;99559.88;4957024;29;20170;-79
2022/03/25 01:43:55;;;;;;;22.02;9.43;;;;;;;-3.57;75.64;99566.13;4955237;29;20054;-78
2022/03/25 01:46:22;;;;;;;20.25;9.27;;;;;;;-3.60;75.59;99560.97;4971457;28;20074;-78
2022/03/25 01:48:49;;;;;;;20.95;9.45;;;;;;;-3.67;76.08;99561.09;4971604;28;20082;-78
2022/03/25 01:51:19;;;;;;;17.30;9.32;;;;;;;-3.62;76.14;99567.97;4971759;28;20101;-79
2022/03/25 01:53:47;;;;;;;17.55;8.57;;;;;;;-3.64;75.80;99564.53;4955367;28;20106;-79
2022/03/25 01:56:22;;;;;;;16.10;7.78;;;;;;;-3.71;75.88;99559.44;4956516;29;20043;-78
2022/03/25 01:58:50;;;;;;;15.52;9.55;;;;;;;-3.69;75.59;99557.63;4971477;28;20093;-78
2022/03/25 02:01:16;;;;;;;34.60;10.55;;;;;;;-3.64;75.83;99564.53;4939291;29;20047;-77
2022/03/25 02:03:44;;;;;;;20.27;10.60;;;;;;;-3.58;75.45;99556.56;4956664;29;20078;-77
2022/03/25 02:06:11;;;;;;;25.13;10.00;;;;;;;-3.65;75.40;99545.38;4939171;29;20592;-79
2022/03/25 02:08:36;;;;;;;19.38;10.13;;;;;;;-3.59;75.41;99562.69;4956234;29;20050;-77
2022/03/25 02:11:04;;;;;;;20.95;10.60;;;;;;;-3.55;75.32;99559.13;4939228;29;20050;-77
2022/03/25 02:13:31;;;;;;;18.60;10.07;;;;;;;-3.67;75.28;99555.88;4974001;28;20054;-77
2022/03/25 02:16:00;;;;;;;26.13;10.38;;;;;;;-3.34;76.71;99558.72;4980470;28;20294;-81
2022/03/25 02:18:26;;;;;;;20.15;9.88;;;;;;;-3.43;75.47;99544.06;4915044;29;20054;-81
2022/03/25 02:20:52;;;;;;;21.38;9.77;;;;;;;-3.41;74.74;99562.34;4963953;29;20036;-79
2022/03/25 02:23:22;;;;;;;19.50;10.60;;;;;;;-3.36;74.62;99565.72;4972948;28;20138;-77
2022/03/25 02:25:53;;;;;;;17.13;10.25;;;;;;;-3.53;74.64;99539.06;4970590;28;20082;-80
2022/03/25 02:28:20;;;;;;;21.27;10.57;;;;;;;-3.39;74.80;99557.94;4970790;28;20050;-80
2022/03/25 02:30:47;;;;;;;18.40;10.13;;;;;;;-3.35;74.54;99551.75;4939242;29;20051;-78
2022/03/25 02:33:14;;;;;;;29.35;10.32;;;;;;;-3.31;74.21;99547.31;4956241;29;20047;-76
2022/03/25 02:35:49;;;;;;;21.67;10.88;;;;;;;-3.28;74.05;99549.88;4971012;28;20053;-79
2022/03/25 02:38:21;;;;;;;23.70;9.27;;;;;;;-3.35;73.38;99525.59;4954502;28;20498;-78
2022/03/25 02:40:48;;;;;;;24.92;10.57;;;;;;;-3.30;74.04;99539.47;4954626;29;20039;-80
2022/03/25 02:43:14;;;;;;;20.60;9.50;;;;;;;-3.23;73.56;99538.44;4954393;28;20046;-81
2022/03/25 02:45:48;;;;;;;18.05;9.52;;;;;;;-3.14;73.40;99544.38;4954210;29;20043;-81
2022/03/25 02:48:14;;;;;;;21.52;10.38;;;;;;;-3.21;73.28;99531.41;4954208;29;20573;-78
2022/03/25 02:50:40;;;;;;;17.42;9.75;;;;;;;-3.15;73.42;99542.66;4965397;28;20407;-78
2022/03/25 02:53:06;;;;;;;17.95;9.75;;;;;;;-3.25;73.41;99536.75;4947217;28;20094;-80
2022/03/25 02:55:33;;;;;;;18.52;10.10;;;;;;;-2.80;76.48;99547.97;4934886;29;20051;-78
2022/03/25 02:57:59;;;;;;;27.00;12.32;;;;;;;-2.05;77.91;99555.78;4952213;28;20047;-81
2022/03/25 03:00:27;;;;;;;25.05;11.55;;;;;;;-2.24;73.33;99540.53;4955230;29;20142;-78
2022/03/25 03:02:54;;;;;;;23.45;11.18;;;;;;;-2.32;71.95;99542.47;4955182;29;20043;-80
2022/03/25 03:05:21;;;;;;;25.38;12.13;;;;;;;-2.56;72.14;99537.81;4922652;28;20566;-81
2022/03/25 03:07:48;;;;;;;21.08;10.88;;;;;;;-2.54;71.83;99544.75;4955247;29;20101;-79
2022/03/25 03:10:14;;;;;;;24.73;11.55;;;;;;;-2.54;71.88;99536.03;4954085;29;20047;-77
2022/03/25 03:12:41;;;;;;;19.73;11.30;;;;;;;-2.50;71.95;99549.00;4939024;29;20047;-78
2022/03/25 03:15:09;;;;;;;23.73;11.88;;;;;;;-2.40;71.65;99549.66;4950653;29;20499;-77
2022/03/25 03:17:35;;;;;;;25.55;12.10;;;;;;;-2.27;71.46;99542.34;4943404;29;20227;-77
2022/03/25 03:20:02;;;;;;;20.85;10.75;;;;;;;-2.27;71.25;99550.22;4956570;29;20082;-79
2022/03/25 03:22:29;;;;;;;20.33;10.88;;;;;;;-2.39;71.58;99532.19;4934939;29;20051;-79
2022/03/25 03:24:55;;;;;;;21.38;10.38;;;;;;;-2.32;71.06;99539.84;4946823;29;20040;-75
2022/03/25 03:27:21;;;;;;;19.55;9.85;;;;;;;-2.42;71.76;99550.59;4926420;29;20404;-79
2022/03/25 03:29:47;;;;;;;23.00;12.23;;;;;;;-2.35;71.61;99545.16;4939013;29;20039;-79
2022/03/25 03:32:13;;;;;;;19.42;9.68;;;;;;;-2.23;70.85;99544.00;4935132;29;20047;-81
2022/03/25 03:34:38;;;;;;;19.15;9.63;;;;;;;-2.42;71.28;99540.13;4935742;29;20047;-78
2022/03/25 03:37:04;;;;;;;21.80;10.50;;;;;;;-2.45;71.93;99541.03;4934482;29;20036;-80
2022/03/25 03:39:30;;;;;;;23.95;9.32;;;;;;;-2.31;71.95;99527.63;4950315;29;20044;-79
2022/03/25 03:41:57;;;;;;;19.73;9.93;;;;;;;-2.32;71.92;99539.84;4944972;29;20110;-81
2022/03/25 03:44:23;;;;;;;27.52;10.18;;;;;;;-2.22;71.56;99540.47;4933927;29;20040;-79
2022/03/25 03:46:49;;;;;;;31.48;10.18;;;;;;;-2.13;70.97;99536.78;4886984;29;20050;-82
2022/03/25 03:49:15;;;;;;;19.05;9.93;;;;;;;-2.03;70.55;99546.09;4949922;29;20039;-77
2022/03/25 03:51:41;;;;;;;21.33;9.68;;;;;;;-2.03;70.50;99543.47;4918011;29;20047;-80
2022/03/25 03:54:07;;;;;;;21.35;7.80;;;;;;;-2.06;70.13;99535.72;4932940;29;20050;-79
2022/03/25 03:56:32;;;;;;;20.52;9.52;;;;;;;-2.06;70.68;99540.97;4932853;29;20035;-78
2022/03/25 03:58:59;;;;;;;20.88;10.38;;;;;;;-2.05;70.56;99534.81;4933510;29;20048;-80
2022/03/25 04:01:25;;;;;;;20.58;8.65;;;;;;;-2.06;70.29;99520.88;4949910;29;20059;-79
2022/03/25 04:03:50;;;;;;;21.17;8.57;;;;;;;-1.92;69.71;99520.47;4935078;29;20044;-80
2022/03/25 04:06:16;;;;;;;20.13;8.68;;;;;;;-2.02;69.73;99524.28;4949269;29;20455;-78
2022/03/25 04:08:43;;;;;;;14.02;8.65;;;;;;;-2.03;69.73;99515.56;4949600;29;20040;-78
2022/03/25 04:11:09;;;;;;;14.88;8.02;;;;;;;-2.00;69.75;99511.97;4949561;29;20550;-78
2022/03/25 04:13:35;;;;;;;12.52;7.95;;;;;;;-1.94;69.40;99514.44;4949118;29;20047;-80
2022/03/25 04:16:01;;;;;;;18.38;8.77;;;;;;;-2.02;69.42;99505.94;4949553;29;20047;-81
2022/03/25 04:18:27;;;;;;;13.90;8.38;;;;;;;-2.11;69.10;99509.63;4936358;29;20407;-80
2022/03/25 04:20:53;;;;;;;15.35;8.20;;;;;;;-1.99;69.75;99513.72;4938735;29;20082;-80
2022/03/25 04:23:18;;;;;;;17.85;9.27;;;;;;;-1.79;69.10;99511.41;4938668;29;20055;-82
2022/03/25 04:25:44;;;;;;;17.33;8.63;;;;;;;-1.85;68.61;99503.72;4944017;29;20483;-80
2022/03/25 04:28:10;;;;;;;12.23;6.68;;;;;;;-1.71;69.19;99498.94;4929732;29;20036;-81
2022/03/25 04:30:40;;;;;;;18.52;9.02;;;;;;;-1.38;68.75;99501.53;4904370;29;20063;-79
2022/03/25 04:33:07;;;;;;;20.10;8.07;;;;;;;-1.32;67.37;99511.81;4919495;29;20528;-84
2022/03/25 04:35:33;;;;;;;14.05;9.32;;;;;;;-1.16;66.70;99508.78;4918070;29;20071;-76
2022/03/25 04:38:00;;;;;;;15.50;8.50;;;;;;;-1.08;65.77;99509.41;4920161;29;20044;-78
2022/03/25 04:40:28;;;;;;;16.38;8.30;;;;;;;-1.30;66.00;99506.56;4934058;29;20056;-78
2022/03/25 04:42:56;;;;;;;15.25;8.38;;;;;;;-1.37;65.61;99513.72;4933180;29;20641;-76
2022/03/25 04:45:24;;;;;;;15.43;7.72;;;;;;;-1.38;65.39;99512.03;4917835;29;20044;-78
2022/03/25 04:47:50;;;;;;;13.32;8.20;;;;;;;-1.50;66.11;99509.75;4919407;29;20226;-81
2022/03/25 04:50:16;;;;;;;12.50;6.28;;;;;;;-1.60;65.71;99511.75;4920158;29;20048;-80
2022/03/25 04:52:42;;;;;;;14.15;7.07;;;;;;;-1.66;65.88;99516.31;4927456;29;20500;-79
2022/03/25 04:55:11;;;;;;;16.85;7.50;;;;;;;-1.61;66.37;99515.28;4921377;29;20048;-80
2022/03/25 04:57:41;;;;;;;14.57;7.30;;;;;;;-1.79;65.94;99495.69;4918183;29;20052;-78
2022/03/25 05:00:08;;;;;;;15.30;6.40;;;;;;;-1.73;65.67;99508.63;4933277;29;20336;-79
2022/03/25 05:02:34;;;;;;;12.00;6.95;;;;;;;-1.63;66.27;99518.84;4917437;29;20054;-81
2022/03/25 05:05:00;;;;;;;10.85;6.75;;;;;;;-1.61;65.54;99517.06;4917843;29;20082;-78
2022/03/25 05:07:26;;;;;;;13.68;8.10;;;;;;;-1.12;65.50;99510.41;4933192;29;20043;-81
2022/03/25 05:09:52;;;;;;;11.45;6.82;;;;;;;-1.10;63.95;99503.34;4933245;29;20044;-79
2022/03/25 05:12:18;;;;;;;12.18;7.05;;;;;;;-1.07;64.44;99521.59;4918383;29;20385;-78
2022/03/25 05:14:44;;;;;;;13.60;7.60;;;;;;;-0.44;66.24;99515.25;4920360;29;20044;-78
2022/03/25 05:17:10;;;;;;;13.63;6.97;;;;;;;-0.61;62.57;99530.69;4918088;29;20040;-79
2022/03/25 05:19:36;;;;;;;13.45;7.43;;;;;;;-0.58;62.62;99530.59;4917864;29;20055;-79
2022/03/25 05:22:02;;;;;;;12.15;7.43;;;;;;;-0.48;62.17;99534.66;4918401;29;20400;-80
2022/03/25 05:24:28;;;;;;;16.67;7.70;;;;;;;-0.52;62.34;99527.78;4917224;29;20055;-77
2022/03/25 05:26:56;;;;;;;11.57;7.47;;;;;;;-0.53;61.67;99523.41;4918141;29;20064;-79
2022/03/25 05:29:23;;;;;;;11.82;6.75;;;;;;;-0.58;61.56;99520.09;4916713;29;20381;-79
2022/03/25 05:31:48;;;;;;;20.02;8.55;;;;;;;-0.28;61.95;99518.25;4917985;29;20099;-78
2022/03/25 05:34:14;;;;;;;14.65;7.80;;;;;;;-0.20;60.62;99525.88;4916749;29;20048;-79
2022/03/25 05:36:40;;;;;;;13.13;7.88;;;;;;;-0.25;60.88;99519.00;4917310;29;20044;-79
2022/03/25 05:39:06;;;;;;;15.35;7.20;;;;;;;-0.03;61.18;99513.88;4932588;29;20048;-79
2022/03/25 05:41:33;;;;;;;11.18;7.35;;;;;;;-0.16;60.34;99515.19;4916361;29;20520;-78
2022/03/25 05:43:59;;;;;;;11.57;6.72;;;;;;;-0.28;60.18;99529.59;4916806;29;20060;-78
2022/03/25 05:46:26;;;;;;;10.57;6.80;;;;;;;-0.28;59.88;99534.84;4932531;29;20207;-77
2022/03/25 05:48:52;;;;;;;14.00;5.90;;;;;;;-0.23;60.27;99520.72;4917357;29;20480;-75
2022/03/25 05:51:18;;;;;;;14.35;6.50;;;;;;;-0.27;59.72;99526.06;4917956;29;20044;-78
2022/03/25 05:53:44;;;;;;;9.57;5.85;;;;;;;-0.27;59.77;99526.06;4916674;29;20095;-80
2022/03/25 05:56:11;;;;;;;12.65;6.78;;;;;;;-0.26;59.94;99512.03;4915980;29;20043;-81
2022/03/25 05:58:38;;;;;;;10.27;5.63;;;;;;;-0.29;59.60;99517.38;4932435;29;20068;-78
2022/03/25 06:01:09;;;;;;;9.70;7.07;;;;;;;-0.40;60.54;99523.91;4932368;29;20048;-81
2022/03/25 06:03:35;;;;;;;10.05;6.15;;;;;;;-0.09;59.71;99523.75;4958077;28;20047;-81
2022/03/25 06:06:04;;;;;;;9.07;6.10;;;;;;;-0.13;58.98;99532.63;4921535;29;20048;-79
2022/03/25 06:08:32;;;;;;;15.88;6.95;;;;;;;0.20;59.29;99536.75;4936707;29;20052;-76
2022/03/25 06:10:59;;;;;;;10.68;6.80;;;;;;;0.47;58.52;99518.28;4903093;29;20040;-79
2022/03/25 06:13:28;;;;;;;9.95;6.55;;;;;;;0.57;57.55;99535.44;4947268;28;20545;-78
2022/03/25 06:15:55;;;;;;;10.25;6.43;;;;;;;0.55;57.40;99516.22;4955664;29;20035;-78
2022/03/25 06:18:21;;;;;;;9.52;6.00;;;;;;;0.35;57.29;99526.63;4955290;29;20054;-80
2022/03/25 06:20:47;;;;;;;12.38;6.13;;;;;;;0.08;57.29;99528.44;4922709;29;20059;-78
2022/03/25 06:23:13;;;;;;;8.85;6.22;;;;;;;-0.10;58.24;99516.78;4922200;29;20039;-79
2022/03/25 06:25:40;;;;;;;10.68;6.78;;;;;;;0.12;58.21;99506.38;4969439;28;20094;-81
2022/03/25 06:28:07;;;;;;;13.15;6.63;;;;;;;0.29;57.30;99508.41;4938070;29;20078;-80
2022/03/25 06:30:35;;;;;;;9.52;5.70;;;;;;;0.06;57.36;99507.44;4955435;29;20051;-80
2022/03/25 06:33:10;;;;;;;12.73;5.80;;;;;;;0.20;57.15;99518.34;4953865;29;20042;-80
2022/03/25 06:35:38;;;;;;;11.77;6.18;;;;;;;0.33;57.32;99510.00;4930364;29;20083;-79
2022/03/25 06:38:05;;;;;;;11.80;6.40;;;;;;;0.49;56.70;99516.47;4947128;29;20106;-81
2022/03/25 06:40:32;;;;;;;8.32;5.63;;;;;;;0.38;56.83;99518.63;4911791;29;20035;-80
2022/03/25 06:42:58;;;;;;;8.55;5.93;;;;;;;0.28;57.20;99523.34;4942921;29;20043;-79
2022/03/25 06:45:25;;;;;;;8.52;5.75;;;;;;;0.32;57.45;99513.56;4943983;29;20085;-80
2022/03/25 06:47:51;;;;;;;10.40;6.65;;;;;;;0.50;57.43;99523.44;4912919;29;20071;-81
2022/03/25 06:50:19;;;;;;;11.27;7.38;;;;;;;0.44;58.00;99513.13;4942492;28;20126;-81
2022/03/25 06:52:46;;;;;;;14.10;6.03;;;;;;;0.29;57.65;99509.25;4943628;29;20507;-79
2022/03/25 06:55:13;;;;;;;12.27;6.78;;;;;;;0.40;58.09;99516.78;4927884;29;20597;-79
2022/03/25 06:57:39;;;;;;;12.55;6.65;;;;;;;0.59;57.13;99504.66;4957181;28;20048;-79
2022/03/25 07:00:11;;;;;;;10.00;6.45;;;;;;;0.75;57.19;99522.53;4943266;29;20051;-81
2022/03/25 07:02:39;;;;;;;9.15;6.30;;;;;;;0.90;56.31;99511.41;4928558;29;20043;-80
2022/03/25 07:05:06;;;;;;;11.10;6.15;;;;;;;0.76;56.34;99503.22;4925790;29;20102;-80
2022/03/25 07:07:36;;;;;;;11.75;6.88;;;;;;;0.81;56.75;99504.72;4909878;29;20095;-80
2022/03/25 07:10:02;;;;;;;9.25;5.70;;;;;;;1.08;55.46;99515.97;4958601;28;20456;-81
2022/03/25 07:12:29;;;;;;;10.85;6.20;;;;;;;0.89;55.98;99501.81;4942997;28;20411;-80
2022/03/25 07:14:55;;;;;;;9.85;6.55;;;;;;;0.90;55.99;99506.16;4912834;29;20130;-80
2022/03/25 07:17:21;;;;;;;8.15;6.40;;;;;;;0.91;56.38;99518.41;4925441;29;20135;-81
2022/03/25 07:19:47;;;;;;;15.43;6.90;;;;;;;1.09;56.21;99514.19;4923181;29;20485;-79
2022/03/25 07:22:13;;;;;;;9.63;6.15;;;;;;;1.16;55.56;99511.28;4918199;29;20075;-81
2022/03/25 07:24:39;;;;;;;9.90;6.30;;;;;;;1.21;55.62;99511.13;4899174;29;20050;-79
2022/03/25 07:27:05;;;;;;;14.93;7.00;;;;;;;1.15;56.10;99512.19;4924922;29;20130;-78
2022/03/25 07:29:31;;;;;;;8.75;6.07;;;;;;;1.16;55.38;99495.47;4916146;29;20048;-77
2022/03/25 07:31:57;;;;;;;9.48;6.25;;;;;;;1.32;56.13;99493.13;4930531;29;20040;-77
2022/03/25 07:34:22;;;;;;;20.95;6.97;;;;;;;1.40;55.56;99492.81;4946806;29;20058;-80
2022/03/25 07:36:48;;;;;;;9.25;6.63;;;;;;;1.50;55.80;99486.22;4930906;29;20389;-79
2022/03/25 07:39:14;;;;;;;8.55;6.15;;;;;;;1.76;55.20;99495.69;4930531;28;20052;-79
2022/03/25 07:41:40;;;;;;;12.32;7.10;;;;;;;1.85;55.73;99497.97;4915070;29;20483;-81
2022/03/25 07:44:06;;;;;;;16.38;7.80;;;;;;;2.02;54.73;99494.59;4930584;29;20059;-80
2022/03/25 07:46:32;;;;;;;9.25;6.85;;;;;;;2.25;54.46;99492.75;4946760;29;20523;-77
2022/03/25 07:48:58;;;;;;;13.30;6.95;;;;;;;2.47;56.06;99500.59;4930560;29;20040;-78
2022/03/25 07:51:24;;;;;;;9.25;6.50;;;;;;;2.67;53.33;99493.50;4946931;29;20500;-83
2022/03/25 07:53:50;;;;;;;11.95;7.05;;;;;;;2.72;53.63;99485.38;4935194;29;20048;-83
2022/03/25 07:56:16;;;;;;;15.55;7.18;;;;;;;2.75;52.65;99490.50;4920008;29;20107;-80
2022/03/25 07:58:43;;;;;;;12.65;7.32;;;;;;;2.68;52.59;99484.66;4950575;29;20052;-77
2022/03/25 08:01:09;;;;;;;9.23;6.53;;;;;;;2.78;52.71;99489.50;4920302;29;20041;-81
2022/03/25 08:03:34;;;;;;;9.40;6.65;;;;;;;2.83;52.94;99491.00;4920363;29;20547;-78
2022/03/25 08:06:01;;;;;;;10.65;6.53;;;;;;;2.65;52.80;99479.50;4918562;29;20052;-80
2022/03/25 08:08:26;;;;;;;9.25;6.40;;;;;;;2.85;52.47;99490.94;4935551;29;20044;-80
2022/03/25 08:10:56;;;;;;;11.77;6.85;;;;;;;3.11;52.10;99487.94;4935971;29;20048;-76
2022/03/25 08:13:23;;;;;;;15.38;7.53;;;;;;;3.39;52.03;99497.19;4935362;29;20048;-80
2022/03/25 08:15:49;;;;;;;11.38;7.38;;;;;;;3.67;51.71;99501.13;4934956;29;20107;-79
2022/03/25 08:18:16;;;;;;;9.32;7.05;;;;;;;3.97;51.08;99489.03;4917933;29;20059;-78
2022/03/25 08:20:45;;;;;;;12.95;6.40;;;;;;;3.95;50.05;99487.38;4934204;29;20048;-81
2022/03/25 08:23:12;;;;;;;14.00;6.97;;;;;;;3.84;50.63;99494.09;4950813;29;20076;-83
2022/03/25 08:28:26;;;;;;;11.68;7.40;;;;;;;4.04;50.51;99485.13;4919613;29;20136;-82
2022/03/25 08:30:52;;;;;;;17.05;7.30;;;;;;;3.99;50.13;99473.09;4934262;29;20051;-82
2022/03/25 08:33:19;;;;;;;12.18;6.90;;;;;;;3.53;50.02;99468.28;4919029;29;20491;-80
2022/03/25 08:35:45;;;;;;;16.00;6.70;;;;;;;3.30;50.86;99471.19;4908681;29;20040;-82
2022/03/25 08:38:12;;;;;;;11.85;7.35;;;;;;;3.15;51.40;99473.66;4921697;29;20048;-79
2022/03/25 08:40:38;;;;;;;9.38;6.00;;;;;;;3.12;51.61;99472.94;4933840;29;20055;-83
2022/03/25 08:43:05;;;;;;;11.05;6.57;;;;;;;3.29;51.47;99458.94;4934099;29;20523;-83
2022/03/25 08:45:32;;;;;;;10.80;7.10;;;;;;;3.40;51.20;99461.91;4919051;29;20464;-80
2022/03/25 08:47:59;;;;;;;9.98;6.45;;;;;;;3.70;50.97;99469.25;4934025;29;20138;-78
2022/03/25 08:50:25;;;;;;;11.95;7.13;;;;;;;3.77;50.86;99465.38;4919956;29;20044;-77
2022/03/25 08:52:53;;;;;;;10.27;6.93;;;;;;;4.06;50.01;99462.13;4918573;29;20042;-81
2022/03/25 08:55:20;;;;;;;11.50;7.28;;;;;;;4.26;50.08;99460.22;4938622;29;20100;-80
2022/03/25 08:57:49;;;;;;;9.63;6.57;;;;;;;4.21;49.96;99459.59;4908099;29;20048;-81
2022/03/25 09:00:17;;;;;;;8.97;6.90;;;;;;;4.14;50.73;99457.28;4919410;29;20131;-82
2022/03/25 09:02:44;;;;;;;8.68;5.93;;;;;;;4.14;49.84;99449.34;4918130;29;20043;-82
2022/03/25 09:05:12;;;;;;;9.48;6.30;;;;;;;4.26;50.32;99463.72;4918556;29;20079;-81
2022/03/25 09:07:38;;;;;;;10.35;6.53;;;;;;;4.31;49.40;99453.75;4918365;29;20044;-82
2022/03/25 09:10:06;;;;;;;9.40;6.75;;;;;;;4.48;48.96;99449.38;4934060;29;20130;-83
2022/03/25 09:12:35;;;;;;;10.48;6.20;;;;;;;4.77;49.29;99456.56;4933759;29;20040;-82
2022/03/25 09:15:04;;;;;;;10.20;6.78;;;;;;;5.16;48.96;99467.72;4918243;29;20147;-81
2022/03/25 09:17:30;;;;;;;10.60;6.63;;;;;;;5.39;48.86;99480.53;4918168;29;20050;-83
2022/03/25 09:19:56;;;;;;;14.27;6.07;;;;;;;5.65;47.72;99483.50;4933561;29;20044;-83
2022/03/25 09:22:22;;;;;;;11.15;5.97;;;;;;;5.57;47.41;99471.53;4934080;29;20047;-84
2022/03/25 09:24:48;;;;;;;8.73;5.70;;;;;;;5.49;47.10;99473.78;4933360;29;20051;-82
2022/03/25 09:27:14;;;;;;;10.88;6.47;;;;;;;5.48;47.26;99461.44;4944545;28;20066;-83
2022/03/25 09:29:40;;;;;;;9.55;6.68;;;;;;;5.92;47.49;99468.66;4949588;29;20052;-83
2022/03/25 09:32:06;;;;;;;8.98;6.50;;;;;;;6.08;46.75;99469.44;4933391;29;20047;-85
2022/03/25 09:37:17;;;;;;;15.52;8.30;;;;;;;6.23;46.54;99462.38;4949983;29;20068;-82
2022/03/25 09:39:43;;;;;;;9.77;6.85;;;;;;;6.32;46.38;99453.00;4932311;29;20086;-83
2022/03/25 09:42:09;;;;;;;14.18;6.35;;;;;;;6.35;45.86;99450.16;4948991;28;20046;-84
2022/03/25 09:44:40;;;;;;;12.95;6.70;;;;;;;6.27;45.37;99450.59;4945486;29;20047;-83
2022/03/25 09:47:06;;;;;;;13.07;7.18;;;;;;;6.47;46.01;99444.09;4948671;29;20051;-84
2022/03/25 09:49:32;;;;;;;12.07;7.03;;;;;;;6.51;46.00;99435.00;4981160;28;20035;-81
2022/03/25 09:51:59;;;;;;;12.27;7.22;;;;;;;6.33;45.84;99442.28;4926249;29;20397;-83
2022/03/25 09:54:26;;;;;;;9.73;6.78;;;;;;;6.66;46.64;99445.63;4966080;28;20042;-81
2022/03/25 09:56:52;;;;;;;9.82;6.68;;;;;;;6.91;45.18;99444.91;4946082;29;20093;-84
2022/03/25 09:59:18;;;;;;;9.20;5.70;;;;;;;6.86;44.85;99447.88;4946283;29;20146;-83
2022/03/25 10:01:45;;;;;;;11.27;6.05;;;;;;;6.58;44.88;99443.41;4960524;28;20047;-84
2022/03/25 10:04:46;;;;;;;9.57;5.95;;;;;;;6.42;44.86;99448.81;4960700;28;20040;-86
2022/03/25 10:07:23;;;;;;;11.98;6.10;;;;;;;6.57;45.02;99439.91;4945806;29;20138;-81
2022/03/25 10:10:04;;;;;;;11.98;5.90;;;;;;;6.60;45.11;99430.91;4945967;29;20032;-82
2022/03/25 10:12:31;;;;;;;8.05;6.28;;;;;;;6.72;45.18;99435.44;4959224;28;20066;-83
2022/03/25 10:15:17;;;;;;;12.23;6.10;;;;;;;7.04;44.74;99421.94;4955634;28;20043;-82
2022/03/25 10:17:53;;;;;;;7.93;5.82;;;;;;;7.00;44.38;99429.25;4941621;29;20059;-82
2022/03/25 10:20:23;;;;;;;8.85;6.50;;;;;;;7.22;44.43;99425.19;4947836;29;20039;-82
2022/03/25 10:23:01;;;;;;;;;;;;;;;7.32;44.17;99428.97;4961944;28;20043;-78
2022/03/25 10:25:32;;;;;;;8.40;5.18;;;;;;;7.44;43.79;99430.81;4945022;28;19929;-81
2022/03/25 10:27:58;;;;;;;7.32;5.50;;;;;;;7.52;43.03;99440.94;4941836;29;20460;-79
2022/03/25 10:30:38;;;;;;;9.73;6.55;;;;;;;7.45;43.45;99427.22;4926438;29;20046;-79
2022/03/25 10:33:11;;;;;;;10.45;6.85;;;;;;;7.68;43.72;99425.69;4959284;28;20048;-80
2022/03/25 10:36:11;;;;;;;10.45;6.85;;;;;;;8.14;42.72;99425.22;4929220;29;20082;-80
2022/03/25 10:38:43;;;;;;;10.75;7.05;;;;;;;8.16;42.06;99427.78;4936176;29;20068;-81
2022/03/25 10:41:11;;;;;;;11.52;6.85;;;;;;;8.18;42.30;99433.88;4958841;28;20122;-79
2022/03/25 10:43:59;;;;;;;9.45;6.93;;;;;;;8.44;42.03;99432.94;4918614;29;20186;-81
2022/03/25 10:46:27;;;;;;;13.02;6.75;;;;;;;8.64;41.26;99436.00;4951517;29;20047;-79
2022/03/25 10:48:56;;;;;;;11.20;6.70;;;;;;;8.55;41.33;99431.34;4947625;29;20046;-81
2022/03/25 10:51:22;;;;;;;10.77;7.07;;;;;;;8.91;41.64;99431.41;4963062;29;20051;-79
2022/03/25 10:53:56;;;;;;;13.48;6.53;;;;;;;9.31;41.07;99428.50;4962316;28;20040;-81
2022/03/25 10:56:22;;;;;;;12.45;7.03;;;;;;;9.49;40.25;99429.81;4955783;29;20040;-80
2022/03/25 10:58:56;;;;;;;11.45;7.30;;;;;;;9.47;39.65;99437.06;4916127;29;20050;-80
2022/03/25 11:01:23;;;;;;;11.15;6.45;;;;;;;9.84;39.74;99445.00;4913538;29;20039;-80
2022/03/25 11:03:51;;;;;;;9.68;6.88;;;;;;;10.10;39.40;99451.03;4943711;29;20526;-81
2022/03/25 11:06:18;;;;;;;11.95;6.45;;;;;;;9.60;39.37;99454.84;4943306;29;20048;-80
2022/03/25 11:08:45;;;;;;;13.35;6.28;;;;;;;9.85;39.02;99452.03;4943880;29;20526;-78
2022/03/25 11:11:14;;;;;;;10.15;5.80;;;;;;;10.00;38.57;99438.50;4942755;29;20059;-81
2022/03/25 11:13:42;;;;;;;9.60;6.07;;;;;;;10.12;38.55;99440.25;4945173;29;20047;-80
2022/03/25 11:16:12;;;;;;;16.60;6.50;;;;;;;10.30;38.06;99441.50;4912430;29;20051;-79
2022/03/25 11:18:41;;;;;;;11.77;6.10;;;;;;;10.51;37.55;99443.50;4959866;28;20051;-81
2022/03/25 11:21:09;;;;;;;;;;;;;;;10.99;37.37;99451.31;4944088;29;20043;-80
2022/03/25 11:23:45;;;;;;;10.05;6.13;;;;;;;11.10;36.90;99451.28;4944348;29;20287;-81
2022/03/25 11:26:14;;;;;;;9.88;6.28;;;;;;;11.23;36.62;99457.34;4929732;29;20060;-81
2022/03/25 11:28:41;;;;;;;;;;;;;;;11.39;35.99;99455.09;4942728;29;20114;-81
2022/03/25 11:31:07;;;;;;;8.38;6.38;;;;;;;11.49;36.43;99454.38;4959592;28;19922;-80
2022/03/25 11:34:16;;;;;;;10.68;6.28;;;;;;;11.63;35.81;99454.09;4942227;29;20058;-81
2022/03/25 11:36:43;;;;;;;13.77;6.10;;;;;;;11.74;36.00;99451.38;4932465;29;20218;-80